Terminal Aerodrome Forecast
Issued by NWS

Home | Current Version | Previous Version | Text Only | Print | Product List | Glossary On
Versions: 1 2 3 4 5 6 7 8 9 10 11 12 13 14 15
191
FTUS46 KLOX 241142
TAFVNY
TAF
KVNY 241142Z 2412/2512 VRB03KT P6SM BKN050
     FM241400 15008KT P6SM BKN025 OVC040
     FM242000 17010KT P6SM BKN050
     FM250300 13005KT P6SM BKN050
     FM250700 VRB03KT P6SM OVC040=

USA.gov is the U.S. government's official web portal to all federal, state and local government web resources and services.